createdAt,value
2023-04-02T00:00:10.610Z,101362.84
2023-04-02T00:03:00.420Z,101366.34
2023-04-02T00:05:31.357Z,101365.69
2023-04-02T00:08:10.336Z,101374.34
2023-04-02T00:10:40.435Z,101378.72
2023-04-02T00:13:23.211Z,101377.06
2023-04-02T00:15:51.969Z,101381.41
2023-04-02T00:18:21.286Z,101379.78
2023-04-02T00:20:53.301Z,101388.47
2023-04-02T00:23:19.885Z,101394.44
2023-04-02T00:25:47.215Z,101395.53
2023-04-02T00:28:18.161Z,101400.69
2023-04-02T00:30:59.771Z,101405.97
2023-04-02T00:33:30.286Z,101407.59
2023-04-02T00:35:56.983Z,101404.34
2023-04-02T00:38:34.308Z,101418.28
2023-04-02T00:41:03.665Z,101426.03
2023-04-02T00:43:36.179Z,101425.34
2023-04-02T00:46:10.775Z,101440.13
2023-04-02T00:48:49.123Z,101448.66
2023-04-02T00:51:35.426Z,101438.63
2023-04-02T00:54:05.778Z,101447.19
2023-04-02T00:56:38.530Z,101447.19
2023-04-02T00:59:05.453Z,101456.78
2023-04-02T01:01:37.761Z,101461.16
2023-04-02T01:04:05.724Z,101465.50
2023-04-02T01:06:37.086Z,101474.16
2023-04-02T01:09:13.539Z,101474.16
2023-04-02T01:12:03.336Z,101486.22
2023-04-02T01:14:36.731Z,101487.31
2023-04-02T01:17:10.841Z,101489.06
2023-04-02T01:20:11.830Z,101488.41
2023-04-02T01:23:02.469Z,101502.34
2023-04-02T01:26:06.587Z,101505.84
2023-04-02T01:29:13.854Z,101507.63
2023-04-02T01:31:41.444Z,101505.84
2023-04-02T01:34:13.366Z,101514.53
2023-04-02T01:36:49.265Z,101513.72
2023-04-02T01:39:22.594Z,101517.38
2023-04-02T01:42:14.885Z,101516.69
2023-04-02T01:44:49.862Z,101527.13
2023-04-02T01:47:20.041Z,101531.44
2023-04-02T01:49:47.343Z,101531.69
2023-04-02T01:52:19.164Z,101544.56
2023-04-02T01:54:47.698Z,101550.56
2023-04-02T01:57:14.518Z,101548.25
2023-04-02T01:59:41.189Z,101557.03
2023-04-02T02:02:13.421Z,101571.13
2023-04-02T02:04:40.896Z,101559.44
2023-04-02T02:07:15.090Z,101574.19
2023-04-02T02:09:42.392Z,101581.38
2023-04-02T02:12:13.650Z,101579.03
2023-04-02T02:14:46.776Z,101587.28
2023-04-02T02:17:17.702Z,101589.41
2023-04-02T02:19:48.985Z,101599.41
2023-04-02T02:22:37.444Z,101602.34
2023-04-02T02:25:10.751Z,101602.81
2023-04-02T02:27:57.077Z,101605.66
2023-04-02T02:30:49.137Z,101610.47
2023-04-02T02:33:25.470Z,101617.75
2023-04-02T02:36:03.229Z,101626.41
2023-04-02T02:38:42.560Z,101628.41
2023-04-02T02:41:28.341Z,101621.97
2023-04-02T02:44:03.607Z,101632.38
2023-04-02T02:46:32.478Z,101647.00
2023-04-02T02:49:00.092Z,101639.31
2023-04-02T02:51:41.123Z,101655.66
2023-04-02T02:54:07.842Z,101646.44
2023-04-02T02:56:40.047Z,101661.31
2023-04-02T02:59:08.533Z,101667.38
2023-04-02T03:01:35.967Z,101673.22
2023-04-02T03:04:03.232Z,101678.59
2023-04-02T03:06:30.211Z,101683.84
2023-04-02T03:09:15.666Z,101688.31
2023-04-02T03:12:03.997Z,101689.28
2023-04-02T03:14:48.877Z,101697.22
2023-04-02T03:17:35.597Z,101707.50
2023-04-02T03:20:25.876Z,101707.63
2023-04-02T03:22:58.178Z,101719.06
2023-04-02T03:25:48.197Z,101718.03
2023-04-02T03:28:20.337Z,101723.28
2023-04-02T03:30:55.286Z,101731.94
2023-04-02T03:33:27.686Z,101739.75
2023-04-02T03:36:18.879Z,101749.34
2023-04-02T03:38:52.100Z,101760.69
2023-04-02T03:41:24.615Z,101758.94
2023-04-02T03:43:59.088Z,101757.41
2023-04-02T03:46:37.914Z,101770.16
2023-04-02T03:49:19.890Z,101777.88
2023-04-02T03:51:55.359Z,101778.78
2023-04-02T03:54:22.101Z,101788.25
2023-04-02T03:56:49.551Z,101789.06
2023-04-02T03:59:28.217Z,101795.97
2023-04-02T04:02:11.691Z,101803.81
2023-04-02T04:04:41.946Z,101805.69
2023-04-02T04:07:16.261Z,101808.47
2023-04-02T04:09:46.836Z,101813.03
2023-04-02T04:12:31.217Z,101819.22
2023-04-02T04:15:06.363Z,101835.72
2023-04-02T04:17:38.466Z,101826.56
2023-04-02T04:20:40.449Z,101839.66
2023-04-02T04:23:19.816Z,101848.28
2023-04-02T04:25:49.526Z,101851.00
2023-04-02T04:28:29.292Z,101859.72
2023-04-02T04:31:04.333Z,101860.75
2023-04-02T04:33:39.933Z,101869.63
2023-04-02T04:36:19.543Z,101875.91
2023-04-02T04:38:55.536Z,101880.25
2023-04-02T04:41:28.171Z,101881.06
2023-04-02T04:43:56.113Z,101897.75
2023-04-02T04:46:45.262Z,101897.03
2023-04-02T04:49:18.225Z,101895.63
2023-04-02T04:51:52.034Z,101913.31
2023-04-02T04:54:20.038Z,101917.88
2023-04-02T04:56:50.196Z,101916.53
2023-04-02T04:59:33.984Z,101930.75
2023-04-02T05:02:11.612Z,101933.63
2023-04-02T05:04:41.194Z,101930.41
2023-04-02T05:07:18.369Z,101946.84
2023-04-02T05:10:10.616Z,101953.63
2023-04-02T05:12:48.461Z,101955.28
2023-04-02T05:15:31.551Z,101963.69
2023-04-02T05:18:20.201Z,101978.06
2023-04-02T05:20:52.378Z,101988.63
2023-04-02T05:23:28.695Z,101984.59
2023-04-02T05:26:00.380Z,101991.78
2023-04-02T05:28:40.832Z,102005.19
2023-04-02T05:31:12.552Z,102008.13
2023-04-02T05:33:40.010Z,102010.28
2023-04-02T05:36:12.245Z,102016.81
2023-04-02T05:38:44.318Z,102024.88
2023-04-02T05:41:27.200Z,102038.19
2023-04-02T05:44:02.152Z,102035.09
2023-04-02T05:46:33.732Z,102033.84
2023-04-02T05:49:00.345Z,102037.47
2023-04-02T05:51:39.689Z,102056.25
2023-04-02T05:54:14.279Z,102058.59
2023-04-02T05:56:46.964Z,102057.78
2023-04-02T05:59:29.698Z,102069.06
2023-04-02T06:02:17.369Z,102074.56
2023-04-02T06:04:56.601Z,102077.31
2023-04-02T06:08:09.244Z,102080.69
2023-04-02T06:10:46.268Z,102091.56
2023-04-02T06:13:17.991Z,102101.44
2023-04-02T06:15:46.048Z,102116.63
2023-04-02T06:18:25.813Z,102112.88
2023-04-02T06:20:53.004Z,102138.31
2023-04-02T06:23:33.976Z,102142.63
2023-04-02T06:26:05.696Z,102138.41
2023-04-02T06:28:40.543Z,102144.38
2023-04-02T06:31:25.927Z,102156.16
2023-04-02T06:33:54.916Z,102151.03
2023-04-02T06:36:21.906Z,102161.94
2023-04-02T06:38:50.787Z,102166.75
2023-04-02T06:41:24.527Z,102158.16
2023-04-02T06:43:55.910Z,102173.34
2023-04-02T06:46:45.579Z,102174.63
2023-04-02T06:49:38.805Z,102182.56
2023-04-02T06:52:13.916Z,102176.72
2023-04-02T06:54:40.381Z,102186.34
2023-04-02T06:57:07.729Z,102193.50
2023-04-02T06:59:34.213Z,102186.16
2023-04-02T07:02:31.090Z,102199.44
2023-04-02T07:05:02.844Z,102207.75
2023-04-02T07:07:29.411Z,102219.03
2023-04-02T07:09:56.324Z,102236.03
2023-04-02T07:12:24.944Z,102240.00
2023-04-02T07:14:51.691Z,102241.34
2023-04-02T07:17:19.837Z,102244.69
2023-04-02T07:19:49.430Z,102249.72
2023-04-02T07:22:19.915Z,102256.38
2023-04-02T07:24:46.792Z,102262.44
2023-04-02T07:27:15.205Z,102267.28
2023-04-02T07:29:44.534Z,102268.47
2023-04-02T07:32:12.488Z,102269.38
2023-04-02T07:34:40.762Z,102283.13
2023-04-02T07:37:08.410Z,102286.78
2023-04-02T07:39:36.930Z,102290.16
2023-04-02T07:42:04.757Z,102292.47
2023-04-02T07:44:31.374Z,102295.19
2023-04-02T07:46:57.949Z,102294.31
2023-04-02T07:49:24.469Z,102299.44
2023-04-02T07:51:52.057Z,102301.81
2023-04-02T07:54:18.490Z,102305.47
2023-04-02T07:56:44.899Z,102300.69
2023-04-02T07:59:11.363Z,102315.91
2023-04-02T08:01:37.850Z,102312.34
2023-04-02T08:04:05.694Z,102316.94
2023-04-02T08:06:32.228Z,102312.34
2023-04-02T08:08:59.326Z,102319.13
2023-04-02T08:11:26.012Z,102331.09
2023-04-02T08:13:52.447Z,102340.47
2023-04-02T08:16:19.252Z,102343.91
2023-04-02T08:18:47.560Z,102361.69
2023-04-02T08:21:16.366Z,102354.94
2023-04-02T08:23:43.464Z,102356.22
2023-04-02T08:26:09.857Z,102359.97
2023-04-02T08:28:36.287Z,102359.16
2023-04-02T08:31:04.630Z,102368.41
2023-04-02T08:33:31.436Z,102379.59
2023-04-02T08:35:57.935Z,102372.88
2023-04-02T08:38:25.345Z,102385.63
2023-04-02T08:40:56.267Z,102392.41
2023-04-02T08:43:41.865Z,102393.59
2023-04-02T08:46:26.613Z,102396.91
2023-04-02T08:49:00.638Z,102403.13
2023-04-02T08:51:30.773Z,102408.72
2023-04-02T08:54:06.401Z,102409.47
2023-04-02T08:56:40.274Z,102419.94
2023-04-02T08:59:17.170Z,102416.59
2023-04-02T09:02:22.618Z,102424.28
2023-04-02T09:04:49.554Z,102437.13
2023-04-02T09:07:17.567Z,102442.44
2023-04-02T09:09:48.602Z,102442.84
2023-04-02T09:12:27.747Z,102439.25
2023-04-02T09:15:26.221Z,102444.56
2023-04-02T09:18:00.882Z,102448.97
2023-04-02T09:20:28.580Z,102451.72
2023-04-02T09:22:55.979Z,102451.44
2023-04-02T09:25:29.803Z,102457.84
2023-04-02T09:27:58.159Z,102457.50
2023-04-02T09:30:57.408Z,102476.66
2023-04-02T09:33:47.262Z,102466.84
2023-04-02T09:36:25.256Z,102481.81
2023-04-02T09:39:00.447Z,102477.00
2023-04-02T09:41:29.550Z,102486.94
2023-04-02T09:44:12.559Z,102487.78
2023-04-02T09:46:52.884Z,102482.47
2023-04-02T09:49:23.643Z,102483.59
2023-04-02T09:52:25.818Z,102488.22
2023-04-02T09:55:24.288Z,102475.16
2023-04-02T09:57:51.891Z,102474.50
2023-04-02T10:00:32.465Z,102482.41
2023-04-02T10:03:23.477Z,102484.66
2023-04-02T10:06:07.704Z,102492.69
2023-04-02T10:08:35.835Z,102492.06
2023-04-02T10:11:06.133Z,102498.38
2023-04-02T10:13:43.020Z,102498.09
2023-04-02T10:16:17.450Z,102493.69
2023-04-02T10:19:13.287Z,102501.50
2023-04-02T10:21:42.352Z,102516.06
2023-04-02T10:24:16.796Z,102514.66
2023-04-02T10:27:06.607Z,102510.38
2023-04-02T10:30:02.566Z,102511.09
2023-04-02T10:32:34.999Z,102511.03
2023-04-02T10:35:05.042Z,102521.34
2023-04-02T10:37:37.515Z,102514.44
2023-04-02T10:40:12.221Z,102515.97
2023-04-02T10:42:45.493Z,102515.28
2023-04-02T10:45:17.854Z,102512.34
2023-04-02T10:48:00.475Z,102528.44
2023-04-02T10:50:38.520Z,102528.47
2023-04-02T10:53:16.311Z,102519.31
2023-04-02T10:55:48.317Z,102513.94
2023-04-02T10:58:25.563Z,102508.41
2023-04-02T11:00:56.786Z,102525.81
2023-04-02T11:03:43.196Z,102534.63
2023-04-02T11:06:27.597Z,102532.13
2023-04-02T11:09:01.134Z,102541.91
2023-04-02T11:11:41.279Z,102545.06
2023-04-02T11:14:36.497Z,102545.06
2023-04-02T11:17:03.386Z,102555.97
2023-04-02T11:19:34.551Z,102548.22
2023-04-02T11:22:15.389Z,102551.25
2023-04-02T11:24:53.205Z,102552.78
2023-04-02T11:27:33.727Z,102557.16
2023-04-02T11:30:19.874Z,102569.13
2023-04-02T11:32:49.723Z,102560.56
2023-04-02T11:35:31.702Z,102572.78
2023-04-02T11:38:19.757Z,102564.25
2023-04-02T11:40:57.955Z,102574.88
2023-04-02T11:43:33.648Z,102570.03
2023-04-02T11:46:16.483Z,102572.56
2023-04-02T11:48:43.374Z,102573.78
2023-04-02T11:51:33.167Z,102583.97
2023-04-02T11:53:59.851Z,102580.47
2023-04-02T11:56:38.940Z,102589.47
2023-04-02T11:59:27.355Z,102588.53
2023-04-02T12:02:14.375Z,102585.84
2023-04-02T12:05:03.406Z,102597.78
2023-04-02T12:07:52.101Z,102595.94
2023-04-02T12:10:22.007Z,102599.44
2023-04-02T12:12:49.483Z,102597.19
2023-04-02T12:15:28.629Z,102596.16
2023-04-02T12:18:05.868Z,102608.34
2023-04-02T12:20:32.930Z,102607.66
2023-04-02T12:22:59.853Z,102602.09
2023-04-02T12:25:40.007Z,102604.94
2023-04-02T12:28:09.471Z,102608.69
2023-04-02T12:30:38.140Z,102609.06
2023-04-02T12:33:38.820Z,102616.00
2023-04-02T12:36:27.360Z,102616.34
2023-04-02T12:38:56.932Z,102626.50
2023-04-02T12:41:30.278Z,102616.97
2023-04-02T12:44:03.238Z,102623.28
2023-04-02T12:46:31.286Z,102623.59
2023-04-02T12:49:17.723Z,102621.78
2023-04-02T12:51:44.331Z,102618.03
2023-04-02T12:54:17.424Z,102630.16
2023-04-02T12:56:44.307Z,102629.75
2023-04-02T12:59:31.024Z,102633.41
2023-04-02T13:02:00.706Z,102645.22
2023-04-02T13:04:27.601Z,102638.94
2023-04-02T13:06:55.894Z,102626.34
2023-04-02T13:09:43.951Z,102633.19
2023-04-02T13:12:26.382Z,102625.91
2023-04-02T13:14:57.633Z,102630.03
2023-04-02T13:17:41.373Z,102635.16
2023-04-02T13:20:34.830Z,102648.19
2023-04-02T13:23:23.753Z,102639.50
2023-04-02T13:25:51.043Z,102643.75
2023-04-02T13:28:17.724Z,102636.16
2023-04-02T13:30:44.410Z,102643.16
2023-04-02T13:33:10.907Z,102635.06
2023-04-02T13:35:37.548Z,102638.06
2023-04-02T13:38:05.700Z,102651.75
2023-04-02T13:40:33.976Z,102652.38
2023-04-02T13:43:00.904Z,102656.25
2023-04-02T13:45:30.994Z,102645.63
2023-04-02T13:48:00.969Z,102654.47
2023-04-02T13:50:30.293Z,102646.81
2023-04-02T13:53:00.304Z,102656.44
2023-04-02T13:55:30.418Z,102654.38
2023-04-02T13:57:57.866Z,102658.94
2023-04-02T14:00:24.233Z,102664.56
2023-04-02T14:02:56.012Z,102662.25
2023-04-02T14:05:32.189Z,102660.66
2023-04-02T14:08:01.713Z,102662.25
2023-04-02T14:10:57.220Z,102662.97
2023-04-02T14:13:29.466Z,102659.00
2023-04-02T14:16:17.844Z,102673.13
2023-04-02T14:18:44.250Z,102671.81
2023-04-02T14:21:31.187Z,102685.81
2023-04-02T14:24:17.209Z,102674.13
2023-04-02T14:27:08.413Z,102682.06
2023-04-02T14:29:51.019Z,102686.34
2023-04-02T14:32:39.330Z,102690.41
2023-04-02T14:35:35.121Z,102687.66
2023-04-02T14:38:34.806Z,102687.91
2023-04-02T14:41:36.880Z,102689.16
2023-04-02T14:44:07.863Z,102689.97
2023-04-02T14:46:37.867Z,102703.34
2023-04-02T14:49:24.277Z,102701.47
2023-04-02T14:51:59.534Z,102697.28
2023-04-02T14:54:36.095Z,102705.91
2023-04-02T14:57:48.843Z,102706.06
2023-04-02T15:00:37.597Z,102701.25
2023-04-02T15:03:23.665Z,102703.84
2023-04-02T15:05:57.932Z,102712.31
2023-04-02T15:08:36.590Z,102714.78
2023-04-02T15:11:18.076Z,102709.38
2023-04-02T15:14:01.115Z,102716.22
2023-04-02T15:16:28.197Z,102718.41
2023-04-02T15:18:59.628Z,102725.38
2023-04-02T15:22:08.663Z,102723.47
2023-04-02T15:25:11.365Z,102714.09
2023-04-02T15:27:57.230Z,102729.63
2023-04-02T15:30:29.002Z,102725.81
2023-04-02T15:33:17.036Z,102733.13
2023-04-02T15:35:49.568Z,102726.75
2023-04-02T15:38:53.240Z,102728.34
2023-04-02T15:41:32.098Z,102727.91
2023-04-02T15:44:01.261Z,102727.97
2023-04-02T15:46:44.033Z,102727.00
2023-04-02T15:49:37.502Z,102737.69
2023-04-02T15:52:17.233Z,102732.75
2023-04-02T15:55:22.476Z,102738.53
2023-04-02T15:58:12.269Z,102742.56
2023-04-02T16:00:47.359Z,102742.25
2023-04-02T16:03:43.185Z,102737.47
2023-04-02T16:06:32.372Z,102734.09
2023-04-02T16:09:07.236Z,102731.38
2023-04-02T16:11:34.240Z,102737.75
2023-04-02T16:14:09.465Z,102744.34
2023-04-02T16:16:36.119Z,102753.63
2023-04-02T16:19:16.861Z,102757.09
2023-04-02T16:21:50.451Z,102761.31
2023-04-02T16:24:17.054Z,102764.38
2023-04-02T16:26:57.170Z,102764.75
2023-04-02T16:29:51.602Z,102760.06
2023-04-02T16:32:38.785Z,102771.25
2023-04-02T16:38:11.881Z,102772.28
2023-04-02T16:41:08.387Z,102784.59
2023-04-02T16:44:05.814Z,102784.06
2023-04-02T16:46:59.590Z,102781.50
2023-04-02T16:49:36.211Z,102775.88
2023-04-02T16:52:31.968Z,102796.84
2023-04-02T16:55:11.525Z,102800.78
2023-04-02T16:57:44.738Z,102809.28
2023-04-02T17:00:11.484Z,102816.00
2023-04-02T17:02:56.580Z,102819.31
2023-04-02T17:05:31.768Z,102820.00
2023-04-02T17:08:04.173Z,102818.94
2023-04-02T17:10:34.803Z,102822.00
2023-04-02T17:13:32.532Z,102828.59
2023-04-02T17:16:22.319Z,102844.13
2023-04-02T17:18:52.313Z,102842.81
2023-04-02T17:21:23.854Z,102849.53
2023-04-02T17:24:21.606Z,102852.22
2023-04-02T17:27:13.701Z,102851.84
2023-04-02T17:29:43.282Z,102853.47
2023-04-02T17:32:26.996Z,102853.91
2023-04-02T17:34:53.418Z,102865.78
2023-04-02T17:37:39.300Z,102861.88
2023-04-02T17:40:35.012Z,102864.91
2023-04-02T17:43:26.351Z,102870.03
2023-04-02T17:46:01.669Z,102880.28
2023-04-02T17:48:28.095Z,102875.84
2023-04-02T17:51:09.833Z,102889.16
2023-04-02T17:54:05.140Z,102895.69
2023-04-02T17:56:35.688Z,102897.25
2023-04-02T17:59:12.624Z,102901.84
2023-04-02T18:01:58.313Z,102906.00
2023-04-02T18:04:46.514Z,102912.19
2023-04-02T18:07:25.036Z,102916.34
2023-04-02T18:10:21.977Z,102918.00
2023-04-02T18:13:06.549Z,102920.50
2023-04-02T18:15:44.859Z,102923.19
2023-04-02T18:18:36.806Z,102927.38
2023-04-02T18:21:31.108Z,102931.63
2023-04-02T18:24:16.306Z,102928.00
2023-04-02T18:26:55.172Z,102942.72
2023-04-02T18:29:42.763Z,102939.53
2023-04-02T18:32:45.970Z,102950.59
2023-04-02T18:35:25.521Z,102956.06
2023-04-02T18:38:02.483Z,102962.41
2023-04-02T18:40:55.971Z,102959.47
2023-04-02T18:43:42.638Z,102959.78
2023-04-02T18:46:37.335Z,102970.19
2023-04-02T18:49:19.157Z,102967.94
2023-04-02T18:51:49.099Z,102966.31
2023-04-02T18:54:35.109Z,102983.00
2023-04-02T18:57:09.213Z,102985.22
2023-04-02T18:59:54.438Z,102994.72
2023-04-02T19:02:21.136Z,102984.03
2023-04-02T19:04:58.031Z,102992.88
2023-04-02T19:07:29.155Z,102996.25
2023-04-02T19:09:58.341Z,102995.38
2023-04-02T19:12:24.741Z,103010.53
2023-04-02T19:14:52.382Z,103008.13
2023-04-02T19:17:46.375Z,103021.56
2023-04-02T19:20:28.480Z,103029.09
2023-04-02T19:23:09.742Z,103031.22
2023-04-02T19:25:58.815Z,103031.41
2023-04-02T19:28:53.237Z,103039.59
2023-04-02T19:31:25.844Z,103042.00
2023-04-02T19:33:59.221Z,103038.78
2023-04-02T19:36:47.212Z,103039.91
2023-04-02T19:39:31.849Z,103038.63
2023-04-02T19:42:11.335Z,103039.75
2023-04-02T19:44:44.630Z,103041.00
2023-04-02T19:47:11.529Z,103054.81
2023-04-02T19:49:37.977Z,103055.47
2023-04-02T19:52:04.646Z,103056.84
2023-04-02T19:54:31.082Z,103054.34
2023-04-02T19:56:57.537Z,103052.72
2023-04-02T19:59:23.938Z,103066.44
2023-04-02T20:01:50.322Z,103067.44
2023-04-02T20:04:16.810Z,103061.53
2023-04-02T20:06:43.376Z,103059.41
2023-04-02T20:09:09.880Z,103061.09
2023-04-02T20:11:37.867Z,103066.59
2023-04-02T20:14:05.162Z,103070.22
2023-04-02T20:16:32.793Z,103070.56
2023-04-02T20:18:59.287Z,103069.63
2023-04-02T20:21:26.701Z,103077.84
2023-04-02T20:23:54.370Z,103073.50
2023-04-02T20:26:22.469Z,103075.72
2023-04-02T20:28:48.931Z,103092.34
2023-04-02T20:31:17.651Z,103091.13
2023-04-02T20:33:44.447Z,103098.78
2023-04-02T20:36:13.676Z,103104.44
2023-04-02T20:38:40.379Z,103101.13
2023-04-02T20:41:07.860Z,103100.50
2023-04-02T20:43:34.734Z,103109.38
2023-04-02T20:46:08.352Z,103113.97
2023-04-02T20:48:37.577Z,103116.63
2023-04-02T20:51:06.202Z,103115.53
2023-04-02T20:53:34.469Z,103128.03
2023-04-02T20:56:17.439Z,103122.63
2023-04-02T20:58:44.012Z,103131.34
2023-04-02T21:01:15.511Z,103128.84
2023-04-02T21:03:41.979Z,103124.69
2023-04-02T21:06:19.829Z,103135.44
2023-04-02T21:08:46.646Z,103136.81
2023-04-02T21:11:13.723Z,103143.47
2023-04-02T21:13:43.727Z,103142.25
2023-04-02T21:16:15.892Z,103144.81
2023-04-02T21:18:42.422Z,103144.44
2023-04-02T21:21:13.493Z,103150.28
2023-04-02T21:23:41.453Z,103150.94
2023-04-02T21:26:11.576Z,103157.50
2023-04-02T21:28:38.006Z,103159.53
2023-04-02T21:31:07.019Z,103166.84
2023-04-02T21:33:41.821Z,103170.41
2023-04-02T21:36:23.016Z,103170.72
2023-04-02T21:38:52.591Z,103175.28
2023-04-02T21:41:26.469Z,103173.94
2023-04-02T21:43:54.313Z,103171.78
2023-04-02T21:46:24.242Z,103167.28
2023-04-02T21:48:52.282Z,103173.94
2023-04-02T21:51:24.020Z,103168.13
2023-04-02T21:53:50.752Z,103172.06
2023-04-02T21:56:19.967Z,103177.69
2023-04-02T21:58:47.587Z,103177.75
2023-04-02T22:01:26.765Z,103177.97
2023-04-02T22:03:55.306Z,103179.56
2023-04-02T22:06:23.014Z,103174.50
2023-04-02T22:09:01.276Z,103172.31
2023-04-02T22:11:30.673Z,103179.66
2023-04-02T22:13:57.754Z,103176.63
2023-04-02T22:16:28.008Z,103181.53
2023-04-02T22:18:56.196Z,103181.63
2023-04-02T22:21:22.956Z,103185.78
2023-04-02T22:23:49.717Z,103184.38
2023-04-02T22:26:17.589Z,103180.94
2023-04-02T22:28:44.217Z,103186.06
2023-04-02T22:31:16.509Z,103187.25
2023-04-02T22:33:44.695Z,103181.78
2023-04-02T22:36:12.682Z,103190.63
2023-04-02T22:38:39.335Z,103181.31
2023-04-02T22:41:17.447Z,103186.91
2023-04-02T22:43:45.568Z,103183.22
2023-04-02T22:46:14.812Z,103190.38
2023-04-02T22:48:42.228Z,103188.31
2023-04-02T22:51:10.563Z,103188.94
2023-04-02T22:53:38.076Z,103191.28
2023-04-02T22:56:08.724Z,103192.25
2023-04-02T22:58:35.603Z,103200.28
2023-04-02T23:01:12.148Z,103197.94
2023-04-02T23:03:38.697Z,103203.28
2023-04-02T23:06:10.516Z,103202.69
2023-04-02T23:08:38.523Z,103207.22
2023-04-02T23:11:06.578Z,103203.13
2023-04-02T23:13:34.049Z,103203.25
2023-04-02T23:16:06.523Z,103209.47
2023-04-02T23:18:34.965Z,103210.53
2023-04-02T23:21:01.893Z,103206.22
2023-04-02T23:23:28.686Z,103209.81
2023-04-02T23:26:11.854Z,103206.47
2023-04-02T23:28:39.345Z,103210.28
2023-04-02T23:31:08.417Z,103211.50
2023-04-02T23:33:35.439Z,103218.59
2023-04-02T23:36:18.331Z,103219.56
2023-04-02T23:38:44.799Z,103214.63
2023-04-02T23:41:16.175Z,103221.22
2023-04-02T23:43:43.087Z,103219.69
2023-04-02T23:46:09.601Z,103220.41
2023-04-02T23:48:36.194Z,103222.38
2023-04-02T23:51:02.668Z,103228.69
2023-04-02T23:53:29.093Z,103217.56
2023-04-02T23:55:55.610Z,103227.88
2023-04-02T23:58:22.104Z,103227.38
